createdAt,value
2022-11-24T00:01:10.885Z,100072.25
2022-11-24T00:03:37.639Z,100051.94
2022-11-24T00:06:11.011Z,100028.19
2022-11-24T00:08:39.345Z,100004.81
2022-11-24T00:11:21.892Z,99994.84
2022-11-24T00:13:48.506Z,99992.59
2022-11-24T00:16:20.045Z,99996.06
2022-11-24T00:18:48.602Z,99992.81
2022-11-24T00:21:17.243Z,99978.38
2022-11-24T00:23:44.524Z,99967.03
2022-11-24T00:26:14.062Z,99964.59
2022-11-24T00:28:41.884Z,99976.56
2022-11-24T00:31:31.889Z,99979.88
2022-11-24T00:34:00.746Z,99977.09
2022-11-24T00:36:30.725Z,99963.53
2022-11-24T00:38:59.710Z,99969.44
2022-11-24T00:41:28.110Z,99975.13
2022-11-24T00:43:55.466Z,99976.38
2022-11-24T00:46:23.042Z,99980.88
2022-11-24T00:48:49.850Z,99991.03
2022-11-24T00:51:18.584Z,99994.88
2022-11-24T00:53:45.580Z,100003.59
2022-11-24T00:56:12.392Z,100007.88
2022-11-24T00:58:40.725Z,100023.06
2022-11-24T01:01:11.418Z,100016.72
2022-11-24T01:03:38.460Z,100019.16
2022-11-24T01:06:13.302Z,100046.28
2022-11-24T01:08:41.020Z,100049.84
2022-11-24T01:11:10.365Z,100041.94
2022-11-24T01:13:37.865Z,100041.16
2022-11-24T01:16:05.094Z,100048.03
2022-11-24T01:18:32.198Z,100028.63
2022-11-24T01:20:58.890Z,100034.69
2022-11-24T01:23:25.528Z,100039.16
2022-11-24T01:25:52.075Z,100032.88
2022-11-24T01:28:18.635Z,100038.97
2022-11-24T01:30:47.229Z,100042.38
2022-11-24T01:33:13.947Z,100041.41
2022-11-24T01:35:40.684Z,100035.69
2022-11-24T01:38:07.284Z,100020.88
2022-11-24T01:40:34.015Z,100028.19
2022-11-24T01:43:00.650Z,100026.91
2022-11-24T01:45:32.469Z,100025.28
2022-11-24T01:48:01.515Z,100020.56
2022-11-24T01:50:28.359Z,100009.25
2022-11-24T01:52:56.676Z,100015.31
2022-11-24T01:55:28.728Z,100014.25
2022-11-24T01:58:13.333Z,100016.91
2022-11-24T02:00:43.913Z,100015.63
2022-11-24T02:03:15.327Z,100005.28
2022-11-24T02:05:49.269Z,100016.25
2022-11-24T02:08:25.609Z,100011.63
2022-11-24T02:10:52.352Z,100011.06
2022-11-24T02:13:19.660Z,100006.41
2022-11-24T02:15:46.286Z,100014.13
2022-11-24T02:18:13.082Z,99997.94
2022-11-24T02:20:40.024Z,100007.44
2022-11-24T02:23:19.298Z,100016.63
2022-11-24T02:26:06.981Z,100023.34
2022-11-24T02:28:33.761Z,100020.88
2022-11-24T02:31:02.262Z,100029.41
2022-11-24T02:33:29.336Z,100033.69
2022-11-24T02:35:55.977Z,100032.88
2022-11-24T02:38:35.935Z,100040.56
2022-11-24T02:41:06.250Z,100037.75
2022-11-24T02:43:39.721Z,100047.47
2022-11-24T02:46:07.068Z,100056.19
2022-11-24T02:48:33.846Z,100050.28
2022-11-24T02:51:00.460Z,100053.94
2022-11-24T02:53:27.054Z,100060.41
2022-11-24T02:55:53.703Z,100072.53
2022-11-24T02:58:20.315Z,100073.47
2022-11-24T03:00:46.925Z,100075.03
2022-11-24T03:03:14.046Z,100072.50
2022-11-24T03:05:40.716Z,100071.66
2022-11-24T03:08:07.304Z,100066.72
2022-11-24T03:10:33.915Z,100072.38
2022-11-24T03:13:00.645Z,100064.47
2022-11-24T03:15:27.302Z,100074.63
2022-11-24T03:17:56.434Z,100069.38
2022-11-24T03:20:23.750Z,100078.28
2022-11-24T03:22:50.805Z,100082.13
2022-11-24T03:25:18.121Z,100069.94
2022-11-24T03:27:45.182Z,100078.03
2022-11-24T03:30:12.116Z,100084.31
2022-11-24T03:32:39.278Z,100085.09
2022-11-24T03:35:06.335Z,100085.09
2022-11-24T03:37:32.966Z,100088.38
2022-11-24T03:39:59.577Z,100080.47
2022-11-24T03:42:26.358Z,100080.84
2022-11-24T03:44:53.144Z,100085.91
2022-11-24T03:47:19.783Z,100094.84
2022-11-24T03:49:46.343Z,100087.91
2022-11-24T03:52:12.921Z,100097.03
2022-11-24T03:54:39.517Z,100099.19
2022-11-24T03:57:06.097Z,100109.09
2022-11-24T03:59:33.248Z,100110.13
2022-11-24T04:01:59.969Z,100124.25
2022-11-24T04:04:26.586Z,100119.38
2022-11-24T04:06:53.199Z,100124.81
2022-11-24T04:09:19.794Z,100133.72
2022-11-24T04:12:04.742Z,100140.81
2022-11-24T04:14:31.438Z,100125.56
2022-11-24T04:16:58.143Z,100131.44
2022-11-24T04:19:24.717Z,100122.94
2022-11-24T04:21:51.290Z,100124.94
2022-11-24T04:24:17.832Z,100118.38
2022-11-24T04:26:44.336Z,100121.19
2022-11-24T04:29:11.032Z,100130.41
2022-11-24T04:31:37.674Z,100132.13
2022-11-24T04:34:04.842Z,100130.00
2022-11-24T04:36:31.558Z,100138.00
2022-11-24T04:39:19.424Z,100130.28
2022-11-24T04:41:46.966Z,100133.00
2022-11-24T04:44:13.615Z,100140.53
2022-11-24T04:46:40.254Z,100142.81
2022-11-24T04:49:06.838Z,100146.81
2022-11-24T04:51:33.345Z,100150.09
2022-11-24T04:53:59.949Z,100149.25
2022-11-24T04:56:26.486Z,100166.84
2022-11-24T04:58:53.244Z,100166.41
2022-11-24T05:01:19.869Z,100155.06
2022-11-24T05:03:46.479Z,100167.69
2022-11-24T05:06:13.069Z,100161.06
2022-11-24T05:08:39.668Z,100167.41
2022-11-24T05:11:07.091Z,100164.94
2022-11-24T05:13:33.907Z,100160.69
2022-11-24T05:16:01.758Z,100164.84
2022-11-24T05:18:28.962Z,100180.66
2022-11-24T05:20:56.051Z,100183.09
2022-11-24T05:23:22.741Z,100184.75
2022-11-24T05:25:49.549Z,100182.31
2022-11-24T05:28:16.682Z,100191.09
2022-11-24T05:30:44.151Z,100188.56
2022-11-24T05:33:22.989Z,100200.81
2022-11-24T05:35:50.141Z,100198.81
2022-11-24T05:38:17.779Z,100197.53
2022-11-24T05:40:45.031Z,100198.91
2022-11-24T05:43:16.738Z,100205.72
2022-11-24T05:45:44.252Z,100225.84
2022-11-24T05:48:13.513Z,100230.31
2022-11-24T05:50:40.349Z,100221.59
2022-11-24T05:53:09.817Z,100224.78
2022-11-24T05:55:37.282Z,100236.66
2022-11-24T05:58:06.644Z,100245.72
2022-11-24T06:00:34.333Z,100244.09
2022-11-24T06:03:01.687Z,100255.06
2022-11-24T06:05:29.442Z,100261.81
2022-11-24T06:07:56.244Z,100265.50
2022-11-24T06:10:26.483Z,100266.63
2022-11-24T06:12:53.452Z,100271.88
2022-11-24T06:15:19.982Z,100275.34
2022-11-24T06:17:53.838Z,100279.13
2022-11-24T06:20:20.499Z,100283.16
2022-11-24T06:22:46.974Z,100285.31
2022-11-24T06:25:13.580Z,100296.19
2022-11-24T06:27:40.523Z,100298.69
2022-11-24T06:30:07.594Z,100295.91
2022-11-24T06:32:34.150Z,100291.28
2022-11-24T06:35:00.650Z,100302.16
2022-11-24T06:37:27.322Z,100305.34
2022-11-24T06:39:53.856Z,100307.03
2022-11-24T06:42:21.599Z,100316.63
2022-11-24T06:44:48.227Z,100320.63
2022-11-24T06:47:15.518Z,100329.66
2022-11-24T06:49:42.382Z,100327.75
2022-11-24T06:52:08.888Z,100348.97
2022-11-24T06:54:35.675Z,100347.53
2022-11-24T06:57:02.450Z,100353.50
2022-11-24T06:59:29.067Z,100352.50
2022-11-24T07:01:55.627Z,100362.34
2022-11-24T07:04:22.181Z,100361.88
2022-11-24T07:06:48.665Z,100370.72
2022-11-24T07:09:15.251Z,100364.66
2022-11-24T07:11:42.108Z,100369.44
2022-11-24T07:14:09.212Z,100374.25
2022-11-24T07:16:35.867Z,100379.66
2022-11-24T07:19:02.509Z,100386.59
2022-11-24T07:21:30.645Z,100395.94
2022-11-24T07:23:57.930Z,100407.09
2022-11-24T07:26:25.176Z,100416.00
2022-11-24T07:28:51.702Z,100417.97
2022-11-24T07:31:20.614Z,100416.97
2022-11-24T07:33:51.983Z,100432.56
2022-11-24T07:36:18.719Z,100427.00
2022-11-24T07:38:45.576Z,100437.50
2022-11-24T07:41:14.254Z,100432.25
2022-11-24T07:43:41.038Z,100433.22
2022-11-24T07:46:11.901Z,100433.75
2022-11-24T07:48:38.857Z,100442.31
2022-11-24T07:51:06.537Z,100450.69
2022-11-24T07:53:33.904Z,100447.06
2022-11-24T07:56:01.909Z,100461.53
2022-11-24T07:58:33.041Z,100474.97
2022-11-24T08:01:01.137Z,100485.00
2022-11-24T08:03:27.911Z,100484.19
2022-11-24T08:08:46.310Z,100484.84
2022-11-24T08:11:18.042Z,100491.88
2022-11-24T08:13:45.197Z,100488.28
2022-11-24T08:16:14.984Z,100490.56
2022-11-24T08:18:42.712Z,100490.56
2022-11-24T08:21:13.946Z,100499.41
2022-11-24T08:23:40.709Z,100503.00
2022-11-24T08:26:09.325Z,100496.25
2022-11-24T08:28:36.915Z,100512.69
2022-11-24T08:31:09.558Z,100515.16
2022-11-24T08:33:36.730Z,100521.69
2022-11-24T08:36:08.443Z,100533.66
2022-11-24T08:38:35.080Z,100528.69
2022-11-24T08:41:07.546Z,100529.84
2022-11-24T08:43:34.172Z,100528.97
2022-11-24T08:46:06.442Z,100527.28
2022-11-24T08:48:33.966Z,100537.94
2022-11-24T08:51:07.739Z,100545.97
2022-11-24T08:53:34.411Z,100552.06
2022-11-24T08:56:01.685Z,100552.19
2022-11-24T08:58:29.314Z,100539.50
2022-11-24T09:00:56.321Z,100545.84
2022-11-24T09:03:22.920Z,100550.44
2022-11-24T09:05:52.257Z,100563.06
2022-11-24T09:08:19.394Z,100548.41
2022-11-24T09:10:46.794Z,100550.50
2022-11-24T09:13:13.306Z,100562.34
2022-11-24T09:15:40.004Z,100559.00
2022-11-24T09:18:06.686Z,100573.09
2022-11-24T09:20:33.192Z,100571.56
2022-11-24T09:22:59.762Z,100578.50
2022-11-24T09:25:26.475Z,100573.31
2022-11-24T09:27:54.470Z,100585.97
2022-11-24T09:30:21.121Z,100589.72
2022-11-24T09:32:47.967Z,100597.28
2022-11-24T09:35:14.728Z,100599.38
2022-11-24T09:37:43.384Z,100596.38
2022-11-24T09:40:14.252Z,100592.69
2022-11-24T09:43:28.346Z,100593.44
2022-11-24T09:46:11.851Z,100605.41
2022-11-24T09:48:41.995Z,100605.88
2022-11-24T09:51:13.730Z,100606.72
2022-11-24T09:53:46.111Z,100611.44
2022-11-24T09:56:30.910Z,100616.03
2022-11-24T09:59:15.969Z,100617.84
2022-11-24T10:01:44.518Z,100616.78
2022-11-24T10:04:21.567Z,100626.91
2022-11-24T10:06:58.509Z,100625.97
2022-11-24T10:10:06.349Z,100635.28
2022-11-24T10:13:12.864Z,100624.38
2022-11-24T10:15:52.942Z,100628.72
2022-11-24T10:18:49.902Z,100637.44
2022-11-24T10:21:44.496Z,100640.59
2022-11-24T10:24:45.063Z,100652.28
2022-11-24T10:27:17.247Z,100670.38
2022-11-24T10:29:44.943Z,100670.72
2022-11-24T10:32:19.280Z,100679.50
2022-11-24T10:34:50.471Z,100683.25
2022-11-24T10:37:35.809Z,100675.31
2022-11-24T10:40:55.783Z,100699.19
2022-11-24T10:43:10.245Z,100686.84
2022-11-24T10:45:39.372Z,100689.59
2022-11-24T10:48:38.216Z,100677.13
2022-11-24T10:51:30.282Z,100698.59
2022-11-24T10:54:18.762Z,100698.09
2022-11-24T10:56:47.112Z,100692.88
2022-11-24T10:59:37.203Z,100700.69
2022-11-24T11:02:30.171Z,100699.69
2022-11-24T11:04:57.145Z,100706.91
2022-11-24T11:07:27.399Z,100721.03
2022-11-24T11:10:23.340Z,100712.47
2022-11-24T11:12:50.035Z,100729.44
2022-11-24T11:15:28.696Z,100738.63
2022-11-24T11:18:01.791Z,100739.03
2022-11-24T11:20:33.667Z,100750.50
2022-11-24T11:23:22.643Z,100755.63
2022-11-24T11:25:49.263Z,100760.94
2022-11-24T11:28:29.987Z,100755.00
2022-11-24T11:31:22.141Z,100764.81
2022-11-24T11:34:26.733Z,100768.91
2022-11-24T11:36:57.331Z,100778.09
2022-11-24T11:39:32.647Z,100781.34
2022-11-24T11:45:35.441Z,100783.16
2022-11-24T11:48:02.031Z,100796.84
2022-11-24T11:51:15.009Z,100808.56
2022-11-24T11:53:45.136Z,100809.78
2022-11-24T11:56:44.231Z,100812.22
2022-11-24T11:59:47.796Z,100807.75
2022-11-24T12:02:20.198Z,100813.47
2022-11-24T12:05:24.990Z,100813.47
2022-11-24T12:08:10.772Z,100822.03
2022-11-24T12:10:50.430Z,100835.50
2022-11-24T12:13:39.903Z,100820.81
2022-11-24T12:16:31.218Z,100836.97
2022-11-24T12:19:30.448Z,100829.34
2022-11-24T12:22:00.044Z,100828.16
2022-11-24T12:24:41.564Z,100837.97
2022-11-24T12:27:23.552Z,100824.28
2022-11-24T12:30:11.987Z,100819.19
2022-11-24T12:32:41.666Z,100818.56
2022-11-24T12:35:37.660Z,100806.19
2022-11-24T12:38:27.728Z,100794.69
2022-11-24T12:44:22.096Z,100791.09
2022-11-24T12:47:12.739Z,100789.06
2022-11-24T12:50:14.761Z,100790.78
2022-11-24T12:52:46.449Z,100788.41
2022-11-24T12:55:23.686Z,100779.81
2022-11-24T12:57:59.276Z,100787.94
2022-11-24T13:00:39.437Z,100782.50
2022-11-24T13:03:15.939Z,100781.31
2022-11-24T13:06:03.823Z,100784.22
2022-11-24T13:08:31.605Z,100809.31
2022-11-24T13:11:23.941Z,100816.75
2022-11-24T13:14:06.017Z,100822.28
2022-11-24T13:19:30.173Z,100831.75
2022-11-24T13:22:02.341Z,100822.03
2022-11-24T13:24:31.906Z,100810.59
2022-11-24T13:27:13.561Z,100804.47
2022-11-24T13:29:42.242Z,100800.78
2022-11-24T13:32:08.750Z,100801.59
2022-11-24T13:34:41.288Z,100812.44
2022-11-24T13:37:31.917Z,100806.50
2022-11-24T13:40:03.628Z,100804.06
2022-11-24T13:42:42.288Z,100801.81
2022-11-24T13:45:40.180Z,100807.94
2022-11-24T13:48:19.132Z,100812.84
2022-11-24T13:50:51.915Z,100814.44
2022-11-24T13:53:33.494Z,100822.16
2022-11-24T13:56:22.324Z,100818.81
2022-11-24T13:58:50.502Z,100820.19
2022-11-24T14:01:28.837Z,100822.81
2022-11-24T14:07:02.483Z,100824.13
2022-11-24T14:09:50.202Z,100816.06
2022-11-24T14:12:25.338Z,100810.13
2022-11-24T14:14:55.770Z,100817.44
2022-11-24T14:17:28.313Z,100822.66
2022-11-24T14:19:57.304Z,100816.53
2022-11-24T14:22:31.507Z,100822.84
2022-11-24T14:25:00.132Z,100816.09
2022-11-24T14:27:29.082Z,100811.75
2022-11-24T14:30:03.977Z,100808.00
2022-11-24T14:32:30.636Z,100816.09
2022-11-24T14:34:57.461Z,100822.56
2022-11-24T14:37:24.142Z,100823.34
2022-11-24T14:39:50.874Z,100821.03
2022-11-24T14:42:22.177Z,100829.91
2022-11-24T14:45:03.953Z,100826.75
2022-11-24T14:47:33.671Z,100829.16
2022-11-24T14:50:15.521Z,100823.19
2022-11-24T14:52:52.355Z,100837.38
2022-11-24T14:55:30.685Z,100837.50
2022-11-24T14:57:59.751Z,100837.78
2022-11-24T15:00:32.017Z,100837.09
2022-11-24T15:03:01.783Z,100841.81
2022-11-24T15:05:58.531Z,100845.34
2022-11-24T15:08:28.487Z,100852.47
2022-11-24T15:11:01.001Z,100861.69
2022-11-24T15:13:28.975Z,100857.31
2022-11-24T15:16:02.466Z,100854.41
2022-11-24T15:18:32.729Z,100848.84
2022-11-24T15:20:59.710Z,100851.84
2022-11-24T15:23:28.395Z,100843.66
2022-11-24T15:26:06.821Z,100852.22
2022-11-24T15:28:33.584Z,100839.53
2022-11-24T15:31:02.348Z,100839.63
2022-11-24T15:33:29.646Z,100842.09
2022-11-24T15:35:56.380Z,100843.75
2022-11-24T15:38:23.524Z,100850.66
2022-11-24T15:40:52.664Z,100843.56
2022-11-24T15:43:35.619Z,100840.34
2022-11-24T15:46:03.654Z,100835.25
2022-11-24T15:48:30.692Z,100833.97
2022-11-24T15:50:58.581Z,100838.00
2022-11-24T15:53:30.539Z,100840.00
2022-11-24T15:55:57.772Z,100847.28
2022-11-24T15:58:24.717Z,100848.09
2022-11-24T16:00:53.832Z,100846.28
2022-11-24T16:06:17.925Z,100846.94
2022-11-24T16:08:50.343Z,100837.16
2022-11-24T16:11:16.881Z,100842.81
2022-11-24T16:13:46.991Z,100847.75
2022-11-24T16:16:18.792Z,100838.81
2022-11-24T16:18:45.520Z,100842.19
2022-11-24T16:21:12.131Z,100850.00
2022-11-24T16:23:38.670Z,100848.09
2022-11-24T16:26:05.588Z,100845.28
2022-11-24T16:28:32.294Z,100854.66
2022-11-24T16:30:58.857Z,100845.56
2022-11-24T16:33:25.382Z,100857.41
2022-11-24T16:35:51.930Z,100854.59
2022-11-24T16:38:20.031Z,100850.94
2022-11-24T16:40:54.193Z,100853.59
2022-11-24T16:43:20.850Z,100854.88
2022-11-24T16:46:01.037Z,100844.13
2022-11-24T16:48:27.564Z,100842.63
2022-11-24T16:50:54.059Z,100844.81
2022-11-24T16:53:20.750Z,100838.75
2022-11-24T16:55:56.719Z,100837.44
2022-11-24T16:58:23.325Z,100829.44
2022-11-24T17:00:50.183Z,100832.78
2022-11-24T17:03:16.788Z,100833.31
2022-11-24T17:05:43.468Z,100840.00
2022-11-24T17:08:10.115Z,100830.22
2022-11-24T17:10:39.586Z,100826.69
2022-11-24T17:13:06.133Z,100832.66
2022-11-24T17:15:36.589Z,100827.28
2022-11-24T17:18:24.175Z,100834.56
2022-11-24T17:20:51.735Z,100831.81
2022-11-24T17:23:19.669Z,100830.72
2022-11-24T17:25:46.405Z,100829.63
2022-11-24T17:28:12.927Z,100820.84
2022-11-24T17:30:39.463Z,100811.81
2022-11-24T17:33:06.001Z,100822.75
2022-11-24T17:35:35.591Z,100821.75
2022-11-24T17:38:02.140Z,100812.28
2022-11-24T17:40:29.643Z,100799.38
2022-11-24T17:43:02.604Z,100786.63
2022-11-24T17:45:30.505Z,100783.34
2022-11-24T17:48:01.103Z,100776.72
2022-11-24T17:50:27.654Z,100783.63
2022-11-24T17:52:54.301Z,100782.00
2022-11-24T17:55:21.782Z,100787.09
2022-11-24T17:57:48.329Z,100788.19
2022-11-24T18:00:15.395Z,100794.63
2022-11-24T18:02:42.023Z,100793.91
2022-11-24T18:05:08.920Z,100794.84
2022-11-24T18:07:36.718Z,100791.84
2022-11-24T18:10:03.802Z,100779.91
2022-11-24T18:12:30.441Z,100789.47
2022-11-24T18:14:57.018Z,100783.03
2022-11-24T18:17:23.581Z,100788.66
2022-11-24T18:19:50.129Z,100775.66
2022-11-24T18:22:16.621Z,100780.19
2022-11-24T18:24:43.158Z,100791.22
2022-11-24T18:27:09.657Z,100773.56
2022-11-24T18:29:36.245Z,100783.13
2022-11-24T18:32:02.873Z,100779.47
2022-11-24T18:34:29.498Z,100779.47
2022-11-24T18:36:56.076Z,100792.06
2022-11-24T18:39:22.705Z,100780.28
2022-11-24T18:41:49.317Z,100786.88
2022-11-24T18:44:15.884Z,100771.47
2022-11-24T18:46:42.366Z,100773.47
2022-11-24T18:49:09.223Z,100772.28
2022-11-24T18:51:36.051Z,100773.38
2022-11-24T18:54:04.906Z,100777.47
2022-11-24T18:56:31.646Z,100771.28
2022-11-24T18:58:58.188Z,100768.53
2022-11-24T19:01:27.449Z,100761.59
2022-11-24T19:03:56.528Z,100751.75
2022-11-24T19:06:36.930Z,100752.06
2022-11-24T19:09:09.287Z,100758.34
2022-11-24T19:11:37.688Z,100754.53
2022-11-24T19:14:08.242Z,100751.06
2022-11-24T19:16:35.382Z,100760.91
2022-11-24T19:19:03.117Z,100741.44
2022-11-24T19:21:38.068Z,100734.78
2022-11-24T19:24:06.466Z,100743.44
2022-11-24T19:26:36.320Z,100744.22
2022-11-24T19:29:03.802Z,100749.50
2022-11-24T19:31:30.431Z,100755.53
2022-11-24T19:33:58.792Z,100750.41
2022-11-24T19:36:26.261Z,100749.25
2022-11-24T19:38:57.423Z,100757.25
2022-11-24T19:41:28.960Z,100755.44
2022-11-24T19:43:56.864Z,100761.50
2022-11-24T19:46:27.169Z,100756.88
2022-11-24T19:48:56.201Z,100750.13
2022-11-24T19:51:31.125Z,100757.63
2022-11-24T19:53:58.259Z,100757.88
2022-11-24T19:56:27.429Z,100757.44
2022-11-24T19:58:55.498Z,100760.47
2022-11-24T20:01:33.856Z,100768.66
2022-11-24T20:04:06.041Z,100779.53
2022-11-24T20:06:36.926Z,100779.47
2022-11-24T20:09:06.205Z,100784.19
2022-11-24T20:11:32.756Z,100785.47
2022-11-24T20:13:59.445Z,100782.81
2022-11-24T20:16:29.936Z,100781.00
2022-11-24T20:19:01.990Z,100785.47
2022-11-24T20:21:32.635Z,100784.09
2022-11-24T20:24:08.478Z,100791.47
2022-11-24T20:26:37.858Z,100787.72
2022-11-24T20:29:05.344Z,100783.31
2022-11-24T20:31:34.959Z,100772.88
2022-11-24T20:34:03.572Z,100764.94
2022-11-24T20:36:32.130Z,100769.31
2022-11-24T20:39:00.766Z,100768.28
2022-11-24T20:41:33.929Z,100768.47
2022-11-24T20:44:05.062Z,100766.03
2022-11-24T20:46:34.025Z,100769.94
2022-11-24T20:49:00.843Z,100772.84
2022-11-24T20:51:30.123Z,100768.56
2022-11-24T20:54:00.370Z,100768.75
2022-11-24T20:56:32.462Z,100778.75
2022-11-24T20:58:59.941Z,100783.84
2022-11-24T21:01:46.866Z,100784.34
2022-11-24T21:04:20.208Z,100787.19
2022-11-24T21:06:47.552Z,100775.84
2022-11-24T21:09:14.338Z,100772.94
2022-11-24T21:11:41.203Z,100784.75
2022-11-24T21:14:08.846Z,100787.13
2022-11-24T21:16:37.668Z,100780.03
2022-11-24T21:19:06.533Z,100773.72
2022-11-24T21:21:35.716Z,100764.75
2022-11-24T21:24:16.125Z,100772.28
2022-11-24T21:26:43.795Z,100785.25
2022-11-24T21:29:15.359Z,100785.13
2022-11-24T21:31:41.953Z,100788.72
2022-11-24T21:34:09.108Z,100796.78
2022-11-24T21:36:36.285Z,100796.97
2022-11-24T21:39:04.068Z,100794.41
2022-11-24T21:41:33.279Z,100797.50
2022-11-24T21:43:59.881Z,100770.91
2022-11-24T21:46:28.450Z,100715.31
2022-11-24T21:48:54.984Z,100620.38
2022-11-24T21:51:21.554Z,100546.13
2022-11-24T21:53:48.579Z,100504.03
2022-11-24T21:56:19.993Z,100468.84
2022-11-24T21:58:52.291Z,100463.56
2022-11-24T22:01:20.751Z,100443.59
2022-11-24T22:03:47.491Z,100444.81
2022-11-24T22:06:14.445Z,100426.53
2022-11-24T22:08:42.370Z,100429.78
2022-11-24T22:11:14.521Z,100443.25
2022-11-24T22:13:42.376Z,100439.59
2022-11-24T22:16:14.609Z,100437.97
2022-11-24T22:18:42.533Z,100439.59
2022-11-24T22:21:13.301Z,100432.69
2022-11-24T22:23:39.973Z,100428.78
2022-11-24T22:26:15.439Z,100431.41
2022-11-24T22:28:43.105Z,100424.91
2022-11-24T22:31:15.542Z,100419.81
2022-11-24T22:33:43.711Z,100428.53
2022-11-24T22:36:11.513Z,100422.00
2022-11-24T22:38:38.135Z,100416.53
2022-11-24T22:41:13.319Z,100409.59
2022-11-24T22:43:41.233Z,100414.09
2022-11-24T22:46:13.841Z,100408.81
2022-11-24T22:48:41.669Z,100412.25
2022-11-24T22:51:12.702Z,100413.06
2022-11-24T22:53:39.935Z,100401.66
2022-11-24T22:56:11.266Z,100399.22
2022-11-24T22:58:39.358Z,100403.72
2022-11-24T23:01:06.783Z,100409.59
2022-11-24T23:03:35.241Z,100409.16
2022-11-24T23:06:03.134Z,100413.06
2022-11-24T23:08:31.899Z,100416.91
2022-11-24T23:11:06.730Z,100418.53
2022-11-24T23:13:33.900Z,100413.91
2022-11-24T23:16:05.175Z,100418.97
2022-11-24T23:18:32.192Z,100413.69
2022-11-24T23:21:05.962Z,100422.69
2022-11-24T23:23:32.845Z,100420.84
2022-11-24T23:26:04.352Z,100414.56
2022-11-24T23:28:31.051Z,100416.06
2022-11-24T23:31:08.942Z,100423.41
2022-11-24T23:33:35.906Z,100419.78
2022-11-24T23:36:05.198Z,100421.63
2022-11-24T23:38:34.738Z,100421.44
2022-11-24T23:41:04.599Z,100416.16
2022-11-24T23:43:34.795Z,100413.75
2022-11-24T23:46:11.746Z,100409.28
2022-11-24T23:48:39.247Z,100414.19
2022-11-24T23:51:08.468Z,100413.19
2022-11-24T23:53:35.902Z,100411.53
2022-11-24T23:56:03.258Z,100419.88
2022-11-24T23:58:30.822Z,100417.22
